sensor_id;sensor_type;location;lat;lon;timestamp;P1;durP1;ratioP1;P2;durP2;ratioP2
59308;SDS011;48433;53.016;-2.260;2023-03-01T00:01:41;6.97;;;3.67;;
59308;SDS011;48433;53.016;-2.260;2023-03-01T00:04:09;6.32;;;3.78;;
59308;SDS011;48433;53.016;-2.260;2023-03-01T00:06:37;7.47;;;3.67;;
59308;SDS011;48433;53.016;-2.260;2023-03-01T00:09:04;8.70;;;3.70;;
59308;SDS011;48433;53.016;-2.260;2023-03-01T00:11:32;9.18;;;4.50;;
59308;SDS011;48433;53.016;-2.260;2023-03-01T00:14:01;8.23;;;3.70;;
59308;SDS011;48433;53.016;-2.260;2023-03-01T00:16:33;7.55;;;3.85;;
59308;SDS011;48433;53.016;-2.260;2023-03-01T00:19:02;7.07;;;4.15;;
59308;SDS011;48433;53.016;-2.260;2023-03-01T00:21:30;9.02;;;4.80;;
59308;SDS011;48433;53.016;-2.260;2023-03-01T00:23:58;10.88;;;4.53;;
59308;SDS011;48433;53.016;-2.260;2023-03-01T00:26:26;7.85;;;3.83;;
59308;SDS011;48433;53.016;-2.260;2023-03-01T00:28:56;9.10;;;4.53;;
59308;SDS011;48433;53.016;-2.260;2023-03-01T00:31:26;7.63;;;3.67;;
59308;SDS011;48433;53.016;-2.260;2023-03-01T00:33:57;7.68;;;4.43;;
59308;SDS011;48433;53.016;-2.260;2023-03-01T00:36:27;7.03;;;3.58;;
59308;SDS011;48433;53.016;-2.260;2023-03-01T00:38:57;7.00;;;3.23;;
59308;SDS011;48433;53.016;-2.260;2023-03-01T00:41:26;7.07;;;3.55;;
59308;SDS011;48433;53.016;-2.260;2023-03-01T00:43:54;8.25;;;3.35;;
59308;SDS011;48433;53.016;-2.260;2023-03-01T00:46:23;7.75;;;3.67;;
59308;SDS011;48433;53.016;-2.260;2023-03-01T00:48:53;9.57;;;3.67;;
59308;SDS011;48433;53.016;-2.260;2023-03-01T00:52:10;6.88;;;3.22;;
59308;SDS011;48433;53.016;-2.260;2023-03-01T00:55:26;8.60;;;4.38;;
59308;SDS011;48433;53.016;-2.260;2023-03-01T00:57:54;9.65;;;4.80;;
59308;SDS011;48433;53.016;-2.260;2023-03-01T01:00:22;7.57;;;3.70;;
59308;SDS011;48433;53.016;-2.260;2023-03-01T01:02:50;9.05;;;4.47;;
59308;SDS011;48433;53.016;-2.260;2023-03-01T01:05:18;8.60;;;4.50;;
59308;SDS011;48433;53.016;-2.260;2023-03-01T01:07:47;9.65;;;5.30;;
59308;SDS011;48433;53.016;-2.260;2023-03-01T01:10:15;9.75;;;4.78;;
59308;SDS011;48433;53.016;-2.260;2023-03-01T01:12:44;8.00;;;4.25;;
59308;SDS011;48433;53.016;-2.260;2023-03-01T01:15:12;6.97;;;4.05;;
59308;SDS011;48433;53.016;-2.260;2023-03-01T01:18:08;7.63;;;4.22;;
59308;SDS011;48433;53.016;-2.260;2023-03-01T01:21:25;8.02;;;4.07;;
59308;SDS011;48433;53.016;-2.260;2023-03-01T01:23:54;7.45;;;3.65;;
59308;SDS011;48433;53.016;-2.260;2023-03-01T01:26:26;8.77;;;3.72;;
59308;SDS011;48433;53.016;-2.260;2023-03-01T01:28:56;9.90;;;3.30;;
59308;SDS011;48433;53.016;-2.260;2023-03-01T01:31:24;7.15;;;2.97;;
59308;SDS011;48433;53.016;-2.260;2023-03-01T01:33:54;5.80;;;2.90;;
59308;SDS011;48433;53.016;-2.260;2023-03-01T01:36:23;7.00;;;3.13;;
59308;SDS011;48433;53.016;-2.260;2023-03-01T01:38:51;7.22;;;3.15;;
59308;SDS011;48433;53.016;-2.260;2023-03-01T01:41:20;6.78;;;2.90;;
59308;SDS011;48433;53.016;-2.260;2023-03-01T01:44:08;9.77;;;3.30;;
59308;SDS011;48433;53.016;-2.260;2023-03-01T01:47:05;8.02;;;2.92;;
59308;SDS011;48433;53.016;-2.260;2023-03-01T01:50:27;6.75;;;2.80;;
59308;SDS011;48433;53.016;-2.260;2023-03-01T01:53:06;7.13;;;2.50;;
59308;SDS011;48433;53.016;-2.260;2023-03-01T01:55:37;7.00;;;2.60;;
59308;SDS011;48433;53.016;-2.260;2023-03-01T01:58:09;5.45;;;2.28;;
59308;SDS011;48433;53.016;-2.260;2023-03-01T02:00:40;5.78;;;2.17;;
59308;SDS011;48433;53.016;-2.260;2023-03-01T02:03:28;5.90;;;1.98;;
59308;SDS011;48433;53.016;-2.260;2023-03-01T02:06:06;6.70;;;2.40;;
59308;SDS011;48433;53.016;-2.260;2023-03-01T02:08:38;5.28;;;2.13;;
59308;SDS011;48433;53.016;-2.260;2023-03-01T02:11:09;6.23;;;2.23;;
59308;SDS011;48433;53.016;-2.260;2023-03-01T02:13:38;5.47;;;2.10;;
59308;SDS011;48433;53.016;-2.260;2023-03-01T02:16:08;7.80;;;2.42;;
59308;SDS011;48433;53.016;-2.260;2023-03-01T02:18:38;5.90;;;2.33;;
59308;SDS011;48433;53.016;-2.260;2023-03-01T02:23:45;6.60;;;2.08;;
59308;SDS011;48433;53.016;-2.260;2023-03-01T02:26:21;5.07;;;2.20;;
59308;SDS011;48433;53.016;-2.260;2023-03-01T02:28:58;5.32;;;2.40;;
59308;SDS011;48433;53.016;-2.260;2023-03-01T02:31:26;5.82;;;2.10;;
59308;SDS011;48433;53.016;-2.260;2023-03-01T02:34:14;5.03;;;2.30;;
59308;SDS011;48433;53.016;-2.260;2023-03-01T02:36:45;5.53;;;2.28;;
59308;SDS011;48433;53.016;-2.260;2023-03-01T02:39:15;4.50;;;2.10;;
59308;SDS011;48433;53.016;-2.260;2023-03-01T02:41:48;5.88;;;2.72;;
59308;SDS011;48433;53.016;-2.260;2023-03-01T02:44:18;6.70;;;3.33;;
59308;SDS011;48433;53.016;-2.260;2023-03-01T02:46:48;7.97;;;3.28;;
59308;SDS011;48433;53.016;-2.260;2023-03-01T02:49:28;10.43;;;3.28;;
59308;SDS011;48433;53.016;-2.260;2023-03-01T02:54:40;7.60;;;3.53;;
59308;SDS011;48433;53.016;-2.260;2023-03-01T02:57:09;8.88;;;3.83;;
59308;SDS011;48433;53.016;-2.260;2023-03-01T02:59:37;8.20;;;4.03;;
59308;SDS011;48433;53.016;-2.260;2023-03-01T03:02:17;7.93;;;3.90;;
59308;SDS011;48433;53.016;-2.260;2023-03-01T03:04:47;7.55;;;3.33;;
59308;SDS011;48433;53.016;-2.260;2023-03-01T03:07:15;8.43;;;3.40;;
59308;SDS011;48433;53.016;-2.260;2023-03-01T03:09:44;9.38;;;3.47;;
59308;SDS011;48433;53.016;-2.260;2023-03-01T03:12:12;8.15;;;3.45;;
59308;SDS011;48433;53.016;-2.260;2023-03-01T03:14:40;8.10;;;3.92;;
59308;SDS011;48433;53.016;-2.260;2023-03-01T03:17:08;7.10;;;3.30;;
59308;SDS011;48433;53.016;-2.260;2023-03-01T03:19:35;7.65;;;3.40;;
59308;SDS011;48433;53.016;-2.260;2023-03-01T03:22:03;6.82;;;3.50;;
59308;SDS011;48433;53.016;-2.260;2023-03-01T03:24:31;7.43;;;3.08;;
59308;SDS011;48433;53.016;-2.260;2023-03-01T03:27:05;7.65;;;2.90;;
59308;SDS011;48433;53.016;-2.260;2023-03-01T03:29:33;6.85;;;3.58;;
59308;SDS011;48433;53.016;-2.260;2023-03-01T03:32:01;7.88;;;3.85;;
59308;SDS011;48433;53.016;-2.260;2023-03-01T03:34:29;6.25;;;3.28;;
59308;SDS011;48433;53.016;-2.260;2023-03-01T03:36:57;8.52;;;3.90;;
59308;SDS011;48433;53.016;-2.260;2023-03-01T03:39:26;7.25;;;3.40;;
59308;SDS011;48433;53.016;-2.260;2023-03-01T03:41:54;7.93;;;3.53;;
59308;SDS011;48433;53.016;-2.260;2023-03-01T03:44:22;10.45;;;4.05;;
59308;SDS011;48433;53.016;-2.260;2023-03-01T03:46:49;9.73;;;4.55;;
59308;SDS011;48433;53.016;-2.260;2023-03-01T03:49:17;13.15;;;4.78;;
59308;SDS011;48433;53.016;-2.260;2023-03-01T03:51:45;8.50;;;4.35;;
59308;SDS011;48433;53.016;-2.260;2023-03-01T03:54:13;10.57;;;4.85;;
59308;SDS011;48433;53.016;-2.260;2023-03-01T03:56:41;7.60;;;4.05;;
59308;SDS011;48433;53.016;-2.260;2023-03-01T03:59:10;6.72;;;3.78;;
59308;SDS011;48433;53.016;-2.260;2023-03-01T04:01:38;7.28;;;2.25;;
59308;SDS011;48433;53.016;-2.260;2023-03-01T04:04:06;5.38;;;2.45;;
59308;SDS011;48433;53.016;-2.260;2023-03-01T04:06:34;6.00;;;2.08;;
59308;SDS011;48433;53.016;-2.260;2023-03-01T04:09:02;6.20;;;2.38;;
59308;SDS011;48433;53.016;-2.260;2023-03-01T04:11:30;4.55;;;2.00;;
59308;SDS011;48433;53.016;-2.260;2023-03-01T04:13:58;3.45;;;1.70;;
59308;SDS011;48433;53.016;-2.260;2023-03-01T04:16:27;5.93;;;1.80;;
59308;SDS011;48433;53.016;-2.260;2023-03-01T04:18:55;4.10;;;1.85;;
59308;SDS011;48433;53.016;-2.260;2023-03-01T04:21:23;4.18;;;2.10;;
59308;SDS011;48433;53.016;-2.260;2023-03-01T04:23:51;5.00;;;1.92;;
59308;SDS011;48433;53.016;-2.260;2023-03-01T04:26:19;4.80;;;2.33;;
59308;SDS011;48433;53.016;-2.260;2023-03-01T04:28:47;5.45;;;2.50;;
59308;SDS011;48433;53.016;-2.260;2023-03-01T04:31:18;5.10;;;2.40;;
59308;SDS011;48433;53.016;-2.260;2023-03-01T04:33:49;5.68;;;2.45;;
59308;SDS011;48433;53.016;-2.260;2023-03-01T04:36:20;6.35;;;2.83;;
59308;SDS011;48433;53.016;-2.260;2023-03-01T04:38:50;5.10;;;2.70;;
59308;SDS011;48433;53.016;-2.260;2023-03-01T04:41:19;6.03;;;3.00;;
59308;SDS011;48433;53.016;-2.260;2023-03-01T04:43:48;6.05;;;3.20;;
59308;SDS011;48433;53.016;-2.260;2023-03-01T04:46:17;8.10;;;3.42;;
59308;SDS011;48433;53.016;-2.260;2023-03-01T04:48:46;10.02;;;3.05;;
59308;SDS011;48433;53.016;-2.260;2023-03-01T04:51:14;7.95;;;3.30;;
59308;SDS011;48433;53.016;-2.260;2023-03-01T04:53:42;7.95;;;3.03;;
59308;SDS011;48433;53.016;-2.260;2023-03-01T04:56:11;6.07;;;3.00;;
59308;SDS011;48433;53.016;-2.260;2023-03-01T04:58:41;9.32;;;3.92;;
59308;SDS011;48433;53.016;-2.260;2023-03-01T05:01:13;6.57;;;3.33;;
59308;SDS011;48433;53.016;-2.260;2023-03-01T05:03:47;7.40;;;3.95;;
59308;SDS011;48433;53.016;-2.260;2023-03-01T05:06:16;7.43;;;3.72;;
59308;SDS011;48433;53.016;-2.260;2023-03-01T05:08:44;7.72;;;3.33;;
59308;SDS011;48433;53.016;-2.260;2023-03-01T05:11:12;6.57;;;3.30;;
59308;SDS011;48433;53.016;-2.260;2023-03-01T05:13:40;8.45;;;4.22;;
59308;SDS011;48433;53.016;-2.260;2023-03-01T05:16:08;7.80;;;3.88;;
59308;SDS011;48433;53.016;-2.260;2023-03-01T05:18:40;9.45;;;3.65;;
59308;SDS011;48433;53.016;-2.260;2023-03-01T05:21:12;7.45;;;3.28;;
59308;SDS011;48433;53.016;-2.260;2023-03-01T05:23:43;8.30;;;3.72;;
59308;SDS011;48433;53.016;-2.260;2023-03-01T05:26:12;8.30;;;4.00;;
59308;SDS011;48433;53.016;-2.260;2023-03-01T05:28:55;7.30;;;3.72;;
59308;SDS011;48433;53.016;-2.260;2023-03-01T05:31:27;7.20;;;3.65;;
59308;SDS011;48433;53.016;-2.260;2023-03-01T05:33:55;8.88;;;3.60;;
59308;SDS011;48433;53.016;-2.260;2023-03-01T05:36:23;6.68;;;3.25;;
59308;SDS011;48433;53.016;-2.260;2023-03-01T05:38:50;7.35;;;3.38;;
59308;SDS011;48433;53.016;-2.260;2023-03-01T05:41:18;8.38;;;3.88;;
59308;SDS011;48433;53.016;-2.260;2023-03-01T05:43:46;8.48;;;3.72;;
59308;SDS011;48433;53.016;-2.260;2023-03-01T05:46:13;7.75;;;3.22;;
59308;SDS011;48433;53.016;-2.260;2023-03-01T05:48:42;8.90;;;4.05;;
59308;SDS011;48433;53.016;-2.260;2023-03-01T05:51:10;7.70;;;3.67;;
59308;SDS011;48433;53.016;-2.260;2023-03-01T05:53:39;8.43;;;3.92;;
59308;SDS011;48433;53.016;-2.260;2023-03-01T05:56:06;8.07;;;4.32;;
59308;SDS011;48433;53.016;-2.260;2023-03-01T05:58:34;9.57;;;4.18;;
59308;SDS011;48433;53.016;-2.260;2023-03-01T06:01:05;9.48;;;4.03;;
59308;SDS011;48433;53.016;-2.260;2023-03-01T06:03:33;8.30;;;3.53;;
59308;SDS011;48433;53.016;-2.260;2023-03-01T06:06:00;8.25;;;3.38;;
59308;SDS011;48433;53.016;-2.260;2023-03-01T06:08:29;8.60;;;3.38;;
59308;SDS011;48433;53.016;-2.260;2023-03-01T06:10:56;8.40;;;4.03;;
59308;SDS011;48433;53.016;-2.260;2023-03-01T06:13:24;7.38;;;3.35;;
59308;SDS011;48433;53.016;-2.260;2023-03-01T06:15:52;8.80;;;3.88;;
59308;SDS011;48433;53.016;-2.260;2023-03-01T06:18:19;7.70;;;3.28;;
59308;SDS011;48433;53.016;-2.260;2023-03-01T06:20:54;8.63;;;4.32;;
59308;SDS011;48433;53.016;-2.260;2023-03-01T06:23:22;8.55;;;4.20;;
59308;SDS011;48433;53.016;-2.260;2023-03-01T06:25:50;6.88;;;3.55;;
59308;SDS011;48433;53.016;-2.260;2023-03-01T06:28:18;8.98;;;3.63;;
59308;SDS011;48433;53.016;-2.260;2023-03-01T06:30:46;9.15;;;3.55;;
59308;SDS011;48433;53.016;-2.260;2023-03-01T06:33:14;9.18;;;4.07;;
59308;SDS011;48433;53.016;-2.260;2023-03-01T06:35:41;8.15;;;3.85;;
59308;SDS011;48433;53.016;-2.260;2023-03-01T06:38:09;8.18;;;3.95;;
59308;SDS011;48433;53.016;-2.260;2023-03-01T06:40:37;8.38;;;4.05;;
59308;SDS011;48433;53.016;-2.260;2023-03-01T06:43:05;8.95;;;3.92;;
59308;SDS011;48433;53.016;-2.260;2023-03-01T06:45:34;9.05;;;3.90;;
59308;SDS011;48433;53.016;-2.260;2023-03-01T06:48:02;11.27;;;4.50;;
59308;SDS011;48433;53.016;-2.260;2023-03-01T06:50:32;9.43;;;4.78;;
59308;SDS011;48433;53.016;-2.260;2023-03-01T06:53:00;8.65;;;3.90;;
59308;SDS011;48433;53.016;-2.260;2023-03-01T06:55:28;8.77;;;4.28;;
59308;SDS011;48433;53.016;-2.260;2023-03-01T06:57:57;7.82;;;3.65;;
59308;SDS011;48433;53.016;-2.260;2023-03-01T07:00:26;8.82;;;4.35;;
59308;SDS011;48433;53.016;-2.260;2023-03-01T07:02:54;9.80;;;4.15;;
59308;SDS011;48433;53.016;-2.260;2023-03-01T07:05:26;7.95;;;4.00;;
59308;SDS011;48433;53.016;-2.260;2023-03-01T07:07:54;7.40;;;3.88;;
59308;SDS011;48433;53.016;-2.260;2023-03-01T07:10:22;7.35;;;3.45;;
59308;SDS011;48433;53.016;-2.260;2023-03-01T07:12:53;6.47;;;2.78;;
59308;SDS011;48433;53.016;-2.260;2023-03-01T07:15:21;7.43;;;3.00;;
59308;SDS011;48433;53.016;-2.260;2023-03-01T07:17:49;5.60;;;2.72;;
59308;SDS011;48433;53.016;-2.260;2023-03-01T07:20:18;6.55;;;3.33;;
59308;SDS011;48433;53.016;-2.260;2023-03-01T07:22:51;7.03;;;3.75;;
59308;SDS011;48433;53.016;-2.260;2023-03-01T07:25:20;6.75;;;3.45;;
59308;SDS011;48433;53.016;-2.260;2023-03-01T07:27:49;6.53;;;3.80;;
59308;SDS011;48433;53.016;-2.260;2023-03-01T07:30:18;8.27;;;3.50;;
59308;SDS011;48433;53.016;-2.260;2023-03-01T07:32:47;7.05;;;3.47;;
59308;SDS011;48433;53.016;-2.260;2023-03-01T07:35:15;8.05;;;3.15;;
59308;SDS011;48433;53.016;-2.260;2023-03-01T07:37:42;6.43;;;3.40;;
59308;SDS011;48433;53.016;-2.260;2023-03-01T07:40:10;7.18;;;3.75;;
59308;SDS011;48433;53.016;-2.260;2023-03-01T07:42:39;6.97;;;3.67;;
59308;SDS011;48433;53.016;-2.260;2023-03-01T07:45:06;6.25;;;3.22;;
59308;SDS011;48433;53.016;-2.260;2023-03-01T07:47:34;5.88;;;2.97;;
59308;SDS011;48433;53.016;-2.260;2023-03-01T07:50:03;5.03;;;2.80;;
59308;SDS011;48433;53.016;-2.260;2023-03-01T07:52:31;6.53;;;2.70;;
59308;SDS011;48433;53.016;-2.260;2023-03-01T07:54:59;5.45;;;3.00;;
59308;SDS011;48433;53.016;-2.260;2023-03-01T07:57:26;9.57;;;4.00;;
59308;SDS011;48433;53.016;-2.260;2023-03-01T07:59:54;8.13;;;3.63;;
59308;SDS011;48433;53.016;-2.260;2023-03-01T08:02:22;8.93;;;4.18;;
59308;SDS011;48433;53.016;-2.260;2023-03-01T08:04:49;7.80;;;3.70;;
59308;SDS011;48433;53.016;-2.260;2023-03-01T08:07:17;7.32;;;3.88;;
59308;SDS011;48433;53.016;-2.260;2023-03-01T08:09:45;7.50;;;3.45;;
59308;SDS011;48433;53.016;-2.260;2023-03-01T08:12:13;6.15;;;3.05;;
59308;SDS011;48433;53.016;-2.260;2023-03-01T08:14:43;8.10;;;3.50;;
59308;SDS011;48433;53.016;-2.260;2023-03-01T08:17:13;11.45;;;3.47;;
59308;SDS011;48433;53.016;-2.260;2023-03-01T08:19:42;8.15;;;3.42;;
59308;SDS011;48433;53.016;-2.260;2023-03-01T08:22:10;5.93;;;2.92;;
59308;SDS011;48433;53.016;-2.260;2023-03-01T08:24:38;6.40;;;3.45;;
59308;SDS011;48433;53.016;-2.260;2023-03-01T08:27:06;9.55;;;4.10;;
59308;SDS011;48433;53.016;-2.260;2023-03-01T08:29:34;8.07;;;4.13;;
59308;SDS011;48433;53.016;-2.260;2023-03-01T08:32:01;6.97;;;3.65;;
59308;SDS011;48433;53.016;-2.260;2023-03-01T08:34:29;8.43;;;4.15;;
59308;SDS011;48433;53.016;-2.260;2023-03-01T08:36:58;7.28;;;3.70;;
59308;SDS011;48433;53.016;-2.260;2023-03-01T08:39:26;7.57;;;3.53;;
59308;SDS011;48433;53.016;-2.260;2023-03-01T08:41:53;7.07;;;3.17;;
59308;SDS011;48433;53.016;-2.260;2023-03-01T08:44:21;7.13;;;2.80;;
59308;SDS011;48433;53.016;-2.260;2023-03-01T08:46:50;6.30;;;2.97;;
59308;SDS011;48433;53.016;-2.260;2023-03-01T08:49:20;12.93;;;3.30;;
59308;SDS011;48433;53.016;-2.260;2023-03-01T08:51:47;5.88;;;2.60;;
59308;SDS011;48433;53.016;-2.260;2023-03-01T08:54:16;5.78;;;2.72;;
59308;SDS011;48433;53.016;-2.260;2023-03-01T08:56:47;9.25;;;3.72;;
59308;SDS011;48433;53.016;-2.260;2023-03-01T08:59:15;9.18;;;3.35;;
59308;SDS011;48433;53.016;-2.260;2023-03-01T09:01:44;8.68;;;3.15;;
59308;SDS011;48433;53.016;-2.260;2023-03-01T09:04:12;12.68;;;5.03;;
59308;SDS011;48433;53.016;-2.260;2023-03-01T09:06:41;8.52;;;3.20;;
59308;SDS011;48433;53.016;-2.260;2023-03-01T09:09:13;8.05;;;2.60;;
59308;SDS011;48433;53.016;-2.260;2023-03-01T09:11:43;6.55;;;3.28;;
59308;SDS011;48433;53.016;-2.260;2023-03-01T09:14:13;7.55;;;2.90;;
59308;SDS011;48433;53.016;-2.260;2023-03-01T09:16:41;9.73;;;3.53;;
59308;SDS011;48433;53.016;-2.260;2023-03-01T09:19:09;7.10;;;3.20;;
59308;SDS011;48433;53.016;-2.260;2023-03-01T09:21:38;7.50;;;2.72;;
59308;SDS011;48433;53.016;-2.260;2023-03-01T09:24:12;11.70;;;3.67;;
59308;SDS011;48433;53.016;-2.260;2023-03-01T09:26:41;8.13;;;3.05;;
59308;SDS011;48433;53.016;-2.260;2023-03-01T09:29:09;6.65;;;3.10;;
59308;SDS011;48433;53.016;-2.260;2023-03-01T09:31:37;8.52;;;2.45;;
59308;SDS011;48433;53.016;-2.260;2023-03-01T09:34:06;5.88;;;2.60;;
59308;SDS011;48433;53.016;-2.260;2023-03-01T09:36:34;7.45;;;3.22;;
59308;SDS011;48433;53.016;-2.260;2023-03-01T09:39:02;6.40;;;3.00;;
59308;SDS011;48433;53.016;-2.260;2023-03-01T09:41:43;7.90;;;2.83;;
59308;SDS011;48433;53.016;-2.260;2023-03-01T09:46:51;8.38;;;2.90;;
59308;SDS011;48433;53.016;-2.260;2023-03-01T09:49:19;5.30;;;3.00;;
59308;SDS011;48433;53.016;-2.260;2023-03-01T09:51:55;6.30;;;2.88;;
59308;SDS011;48433;53.016;-2.260;2023-03-01T09:54:32;7.43;;;3.13;;
59308;SDS011;48433;53.016;-2.260;2023-03-01T10:02:26;7.55;;;3.40;;
59308;SDS011;48433;53.016;-2.260;2023-03-01T10:10:57;12.38;;;3.63;;
59308;SDS011;48433;53.016;-2.260;2023-03-01T10:13:47;10.23;;;3.53;;
59308;SDS011;48433;53.016;-2.260;2023-03-01T10:16:55;11.60;;;3.00;;
59308;SDS011;48433;53.016;-2.260;2023-03-01T10:19:46;6.30;;;2.83;;
59308;SDS011;48433;53.016;-2.260;2023-03-01T10:22:21;10.50;;;4.00;;
59308;SDS011;48433;53.016;-2.260;2023-03-01T10:24:56;9.18;;;3.15;;
59308;SDS011;48433;53.016;-2.260;2023-03-01T10:27:29;8.90;;;4.30;;
59308;SDS011;48433;53.016;-2.260;2023-03-01T10:33:13;14.23;;;4.03;;
59308;SDS011;48433;53.016;-2.260;2023-03-01T10:35:49;10.25;;;3.33;;
59308;SDS011;48433;53.016;-2.260;2023-03-01T10:38:17;7.78;;;3.30;;
59308;SDS011;48433;53.016;-2.260;2023-03-01T10:43:27;7.07;;;3.63;;
59308;SDS011;48433;53.016;-2.260;2023-03-01T10:49:05;7.22;;;2.67;;
59308;SDS011;48433;53.016;-2.260;2023-03-01T10:51:53;6.72;;;2.60;;
59308;SDS011;48433;53.016;-2.260;2023-03-01T10:57:01;5.75;;;2.45;;
59308;SDS011;48433;53.016;-2.260;2023-03-01T10:59:36;5.47;;;1.80;;
59308;SDS011;48433;53.016;-2.260;2023-03-01T11:02:16;4.90;;;1.67;;
59308;SDS011;48433;53.016;-2.260;2023-03-01T11:07:52;4.05;;;1.60;;
59308;SDS011;48433;53.016;-2.260;2023-03-01T11:10:26;7.88;;;1.92;;
59308;SDS011;48433;53.016;-2.260;2023-03-01T11:13:13;7.22;;;1.90;;
59308;SDS011;48433;53.016;-2.260;2023-03-01T11:15:59;15.93;;;3.08;;
59308;SDS011;48433;53.016;-2.260;2023-03-01T11:18:29;10.80;;;2.17;;
59308;SDS011;48433;53.016;-2.260;2023-03-01T11:21:13;3.33;;;1.60;;
59308;SDS011;48433;53.016;-2.260;2023-03-01T11:23:45;4.45;;;1.70;;
59308;SDS011;48433;53.016;-2.260;2023-03-01T11:26:13;6.55;;;1.70;;
59308;SDS011;48433;53.016;-2.260;2023-03-01T11:28:44;7.45;;;2.60;;
59308;SDS011;48433;53.016;-2.260;2023-03-01T11:31:17;5.05;;;1.90;;
59308;SDS011;48433;53.016;-2.260;2023-03-01T11:42:25;11.10;;;3.30;;
59308;SDS011;48433;53.016;-2.260;2023-03-01T11:45:06;8.63;;;3.20;;
59308;SDS011;48433;53.016;-2.260;2023-03-01T11:50:30;7.78;;;4.13;;
59308;SDS011;48433;53.016;-2.260;2023-03-01T12:01:19;10.43;;;2.22;;
59308;SDS011;48433;53.016;-2.260;2023-03-01T12:09:57;4.03;;;1.10;;
59308;SDS011;48433;53.016;-2.260;2023-03-01T12:33:00;9.30;;;4.03;;
59308;SDS011;48433;53.016;-2.260;2023-03-01T12:46:32;5.10;;;1.70;;
59308;SDS011;48433;53.016;-2.260;2023-03-01T12:49:21;20.05;;;2.65;;
59308;SDS011;48433;53.016;-2.260;2023-03-01T12:51:55;7.15;;;1.50;;
59308;SDS011;48433;53.016;-2.260;2023-03-01T12:54:38;8.02;;;1.60;;
59308;SDS011;48433;53.016;-2.260;2023-03-01T12:57:15;7.85;;;1.40;;
59308;SDS011;48433;53.016;-2.260;2023-03-01T13:02:33;5.30;;;1.60;;
59308;SDS011;48433;53.016;-2.260;2023-03-01T13:05:15;5.32;;;1.60;;
59308;SDS011;48433;53.016;-2.260;2023-03-01T13:13:20;4.90;;;2.50;;
59308;SDS011;48433;53.016;-2.260;2023-03-01T13:15:50;6.55;;;2.92;;
59308;SDS011;48433;53.016;-2.260;2023-03-01T13:20:55;6.53;;;3.20;;
59308;SDS011;48433;53.016;-2.260;2023-03-01T13:23:29;7.43;;;2.85;;
59308;SDS011;48433;53.016;-2.260;2023-03-01T13:26:00;6.35;;;2.30;;
59308;SDS011;48433;53.016;-2.260;2023-03-01T13:28:40;8.57;;;2.22;;
59308;SDS011;48433;53.016;-2.260;2023-03-01T13:33:56;6.18;;;1.70;;
59308;SDS011;48433;53.016;-2.260;2023-03-01T13:39:00;2.65;;;1.23;;
59308;SDS011;48433;53.016;-2.260;2023-03-01T13:47:04;8.75;;;1.92;;
59308;SDS011;48433;53.016;-2.260;2023-03-01T13:49:46;5.05;;;1.52;;
59308;SDS011;48433;53.016;-2.260;2023-03-01T13:52:30;9.00;;;2.22;;
59308;SDS011;48433;53.016;-2.260;2023-03-01T13:55:05;7.45;;;1.63;;
59308;SDS011;48433;53.016;-2.260;2023-03-01T13:57:48;4.68;;;1.90;;
59308;SDS011;48433;53.016;-2.260;2023-03-01T14:00:39;5.07;;;1.73;;
59308;SDS011;48433;53.016;-2.260;2023-03-01T14:03:09;6.03;;;1.73;;
59308;SDS011;48433;53.016;-2.260;2023-03-01T14:05:42;3.88;;;1.25;;
59308;SDS011;48433;53.016;-2.260;2023-03-01T14:08:41;3.42;;;1.52;;
59308;SDS011;48433;53.016;-2.260;2023-03-01T14:19:25;7.00;;;1.60;;
59308;SDS011;48433;53.016;-2.260;2023-03-01T14:24:53;6.88;;;1.50;;
59308;SDS011;48433;53.016;-2.260;2023-03-01T14:27:27;11.07;;;1.90;;
59308;SDS011;48433;53.016;-2.260;2023-03-01T14:30:31;5.38;;;1.67;;
59308;SDS011;48433;53.016;-2.260;2023-03-01T14:33:01;11.80;;;2.17;;
59308;SDS011;48433;53.016;-2.260;2023-03-01T14:35:31;7.43;;;1.77;;
59308;SDS011;48433;53.016;-2.260;2023-03-01T14:38:01;5.45;;;1.60;;
59308;SDS011;48433;53.016;-2.260;2023-03-01T14:40:34;4.97;;;1.48;;
59308;SDS011;48433;53.016;-2.260;2023-03-01T14:43:08;2.75;;;1.08;;
59308;SDS011;48433;53.016;-2.260;2023-03-01T14:45:38;6.63;;;1.77;;
59308;SDS011;48433;53.016;-2.260;2023-03-01T14:48:06;9.20;;;2.42;;
59308;SDS011;48433;53.016;-2.260;2023-03-01T14:50:34;4.63;;;1.60;;
59308;SDS011;48433;53.016;-2.260;2023-03-01T14:53:14;5.00;;;1.50;;
59308;SDS011;48433;53.016;-2.260;2023-03-01T14:58:21;8.20;;;1.88;;
59308;SDS011;48433;53.016;-2.260;2023-03-01T15:00:52;6.43;;;1.60;;
59308;SDS011;48433;53.016;-2.260;2023-03-01T15:03:38;6.22;;;1.77;;
59308;SDS011;48433;53.016;-2.260;2023-03-01T15:06:14;5.32;;;1.50;;
59308;SDS011;48433;53.016;-2.260;2023-03-01T15:08:50;7.30;;;1.48;;
59308;SDS011;48433;53.016;-2.260;2023-03-01T15:11:29;6.88;;;1.50;;
59308;SDS011;48433;53.016;-2.260;2023-03-01T15:13:58;5.43;;;1.60;;
59308;SDS011;48433;53.016;-2.260;2023-03-01T15:16:30;7.18;;;1.30;;
59308;SDS011;48433;53.016;-2.260;2023-03-01T15:19:00;6.90;;;1.50;;
59308;SDS011;48433;53.016;-2.260;2023-03-01T15:21:34;6.57;;;1.45;;
59308;SDS011;48433;53.016;-2.260;2023-03-01T15:26:59;3.47;;;1.05;;
59308;SDS011;48433;53.016;-2.260;2023-03-01T15:29:34;3.85;;;1.20;;
59308;SDS011;48433;53.016;-2.260;2023-03-01T15:34:57;5.20;;;1.17;;
59308;SDS011;48433;53.016;-2.260;2023-03-01T15:40:17;5.22;;;1.17;;
59308;SDS011;48433;53.016;-2.260;2023-03-01T15:42:58;10.88;;;1.60;;
59308;SDS011;48433;53.016;-2.260;2023-03-01T15:45:27;9.10;;;1.58;;
59308;SDS011;48433;53.016;-2.260;2023-03-01T15:47:57;4.13;;;1.40;;
59308;SDS011;48433;53.016;-2.260;2023-03-01T15:50:31;3.75;;;1.50;;
59308;SDS011;48433;53.016;-2.260;2023-03-01T15:53:04;8.57;;;2.15;;
59308;SDS011;48433;53.016;-2.260;2023-03-01T15:55:38;6.63;;;1.67;;
59308;SDS011;48433;53.016;-2.260;2023-03-01T15:58:09;6.57;;;2.20;;
59308;SDS011;48433;53.016;-2.260;2023-03-01T16:00:40;7.15;;;2.08;;
59308;SDS011;48433;53.016;-2.260;2023-03-01T16:03:25;9.80;;;3.00;;
59308;SDS011;48433;53.016;-2.260;2023-03-01T16:05:53;7.60;;;2.45;;
59308;SDS011;48433;53.016;-2.260;2023-03-01T16:08:21;4.40;;;1.70;;
59308;SDS011;48433;53.016;-2.260;2023-03-01T16:10:49;5.55;;;1.63;;
59308;SDS011;48433;53.016;-2.260;2023-03-01T16:13:18;6.65;;;1.60;;
59308;SDS011;48433;53.016;-2.260;2023-03-01T16:15:46;4.28;;;1.05;;
59308;SDS011;48433;53.016;-2.260;2023-03-01T16:18:14;5.85;;;1.77;;
59308;SDS011;48433;53.016;-2.260;2023-03-01T16:20:42;11.10;;;2.28;;
59308;SDS011;48433;53.016;-2.260;2023-03-01T16:23:10;5.07;;;1.70;;
59308;SDS011;48433;53.016;-2.260;2023-03-01T16:25:38;5.95;;;2.47;;
59308;SDS011;48433;53.016;-2.260;2023-03-01T16:28:06;6.75;;;2.67;;
59308;SDS011;48433;53.016;-2.260;2023-03-01T16:30:38;5.28;;;2.08;;
59308;SDS011;48433;53.016;-2.260;2023-03-01T16:33:08;6.78;;;2.67;;
59308;SDS011;48433;53.016;-2.260;2023-03-01T16:35:56;6.40;;;2.50;;
59308;SDS011;48433;53.016;-2.260;2023-03-01T16:38:27;6.70;;;3.25;;
59308;SDS011;48433;53.016;-2.260;2023-03-01T16:40:55;6.28;;;2.67;;
59308;SDS011;48433;53.016;-2.260;2023-03-01T16:43:22;5.20;;;2.25;;
59308;SDS011;48433;53.016;-2.260;2023-03-01T16:45:50;7.03;;;2.83;;
59308;SDS011;48433;53.016;-2.260;2023-03-01T16:48:18;5.97;;;2.45;;
59308;SDS011;48433;53.016;-2.260;2023-03-01T16:50:54;6.93;;;2.63;;
59308;SDS011;48433;53.016;-2.260;2023-03-01T16:53:26;7.50;;;3.22;;
59308;SDS011;48433;53.016;-2.260;2023-03-01T16:55:58;9.05;;;3.05;;
59308;SDS011;48433;53.016;-2.260;2023-03-01T16:58:26;8.18;;;2.67;;
59308;SDS011;48433;53.016;-2.260;2023-03-01T17:00:53;7.32;;;2.72;;
59308;SDS011;48433;53.016;-2.260;2023-03-01T17:03:23;6.40;;;3.28;;
59308;SDS011;48433;53.016;-2.260;2023-03-01T17:05:53;8.70;;;3.03;;
59308;SDS011;48433;53.016;-2.260;2023-03-01T17:08:20;6.68;;;2.60;;
59308;SDS011;48433;53.016;-2.260;2023-03-01T17:10:48;8.27;;;2.50;;
59308;SDS011;48433;53.016;-2.260;2023-03-01T17:13:16;11.82;;;2.53;;
59308;SDS011;48433;53.016;-2.260;2023-03-01T17:15:43;5.38;;;2.33;;